sensor_id;sensor_type;location;lat;lon;timestamp;pressure;altitude;pressure_sealevel;temperature;humidity
39491;BME280;25175;50.140;18.990;2024-01-07T00:02:06;97833.34;;;-0.36;68.31
39491;BME280;25175;50.140;18.990;2024-01-07T00:05:10;97842.41;;;-0.32;68.56
39491;BME280;25175;50.140;18.990;2024-01-07T00:08:18;97849.84;;;-0.29;68.27
39491;BME280;25175;50.140;18.990;2024-01-07T00:11:23;97840.94;;;-0.34;68.21
39491;BME280;25175;50.140;18.990;2024-01-07T00:14:29;97846.25;;;-0.36;68.81
39491;BME280;25175;50.140;18.990;2024-01-07T00:17:33;97836.91;;;-0.37;68.01
39491;BME280;25175;50.140;18.990;2024-01-07T00:20:39;97844.13;;;-0.40;67.81
39491;BME280;25175;50.140;18.990;2024-01-07T00:23:46;97841.41;;;-0.39;67.64
39491;BME280;25175;50.140;18.990;2024-01-07T00:26:52;97843.84;;;-0.37;67.98
39491;BME280;25175;50.140;18.990;2024-01-07T00:29:56;97852.97;;;-0.43;67.64
39491;BME280;25175;50.140;18.990;2024-01-07T00:33:01;97843.75;;;-0.53;67.01
39491;BME280;25175;50.140;18.990;2024-01-07T00:36:07;97838.19;;;-0.74;67.49
39491;BME280;25175;50.140;18.990;2024-01-07T00:39:16;97857.66;;;-0.72;67.86
39491;BME280;25175;50.140;18.990;2024-01-07T00:42:21;97856.66;;;-0.79;67.70
39491;BME280;25175;50.140;18.990;2024-01-07T00:45:26;97842.41;;;-0.91;67.63
39491;BME280;25175;50.140;18.990;2024-01-07T00:48:31;97860.19;;;-0.80;67.75
39491;BME280;25175;50.140;18.990;2024-01-07T00:51:36;97869.38;;;-0.77;68.21
39491;BME280;25175;50.140;18.990;2024-01-07T00:54:43;97873.59;;;-0.76;67.81
39491;BME280;25175;50.140;18.990;2024-01-07T00:57:49;97868.59;;;-0.78;67.88
39491;BME280;25175;50.140;18.990;2024-01-07T01:00:53;97859.53;;;-0.82;68.18
39491;BME280;25175;50.140;18.990;2024-01-07T01:03:59;97877.09;;;-0.77;68.02
39491;BME280;25175;50.140;18.990;2024-01-07T01:07:03;97888.00;;;-0.83;67.44
39491;BME280;25175;50.140;18.990;2024-01-07T01:10:12;97881.56;;;-0.87;68.03
39491;BME280;25175;50.140;18.990;2024-01-07T01:13:18;97876.09;;;-0.84;67.91
39491;BME280;25175;50.140;18.990;2024-01-07T01:16:23;97882.84;;;-0.83;67.93
39491;BME280;25175;50.140;18.990;2024-01-07T01:19:28;97889.34;;;-0.79;67.44
39491;BME280;25175;50.140;18.990;2024-01-07T01:22:33;97894.97;;;-0.76;67.92
39491;BME280;25175;50.140;18.990;2024-01-07T01:25:40;97886.91;;;-0.81;67.43
39491;BME280;25175;50.140;18.990;2024-01-07T01:28:51;97888.31;;;-0.86;67.63
39491;BME280;25175;50.140;18.990;2024-01-07T01:31:56;97882.56;;;-0.80;68.05
39491;BME280;25175;50.140;18.990;2024-01-07T01:35:02;97894.19;;;-0.76;67.58
39491;BME280;25175;50.140;18.990;2024-01-07T01:38:06;97884.53;;;-0.74;67.17
39491;BME280;25175;50.140;18.990;2024-01-07T01:41:15;97852.47;;;-1.05;67.30
39491;BME280;25175;50.140;18.990;2024-01-07T01:44:20;97889.03;;;-0.76;67.44
39491;BME280;25175;50.140;18.990;2024-01-07T01:47:25;97899.78;;;-0.81;66.48
39491;BME280;25175;50.140;18.990;2024-01-07T01:50:30;97900.53;;;-0.88;66.77
39491;BME280;25175;50.140;18.990;2024-01-07T01:53:37;97897.09;;;-0.97;66.92
39491;BME280;25175;50.140;18.990;2024-01-07T01:56:45;97900.19;;;-0.93;66.59
39491;BME280;25175;50.140;18.990;2024-01-07T01:59:52;97911.75;;;-0.97;66.63
39491;BME280;25175;50.140;18.990;2024-01-07T02:02:57;97909.41;;;-1.08;66.55
39491;BME280;25175;50.140;18.990;2024-01-07T02:06:03;97912.41;;;-1.13;66.67
39491;BME280;25175;50.140;18.990;2024-01-07T02:09:08;97907.56;;;-1.16;66.70
39491;BME280;25175;50.140;18.990;2024-01-07T02:12:16;97903.53;;;-1.18;66.88
39491;BME280;25175;50.140;18.990;2024-01-07T02:15:21;97905.44;;;-1.20;66.63
39491;BME280;25175;50.140;18.990;2024-01-07T02:18:26;97916.03;;;-1.23;66.62
39491;BME280;25175;50.140;18.990;2024-01-07T02:21:31;97900.34;;;-1.30;66.58
39491;BME280;25175;50.140;18.990;2024-01-07T02:24:38;97912.34;;;-1.38;66.55
39491;BME280;25175;50.140;18.990;2024-01-07T02:27:44;97916.09;;;-1.33;66.60
39491;BME280;25175;50.140;18.990;2024-01-07T02:30:48;97919.66;;;-1.34;66.53
39491;BME280;25175;50.140;18.990;2024-01-07T02:33:54;97921.84;;;-1.39;66.35
39491;BME280;25175;50.140;18.990;2024-01-07T02:36:58;97897.31;;;-1.51;66.11
39491;BME280;25175;50.140;18.990;2024-01-07T02:40:07;97929.78;;;-1.50;66.31
39491;BME280;25175;50.140;18.990;2024-01-07T02:43:13;97923.75;;;-1.58;65.97
39491;BME280;25175;50.140;18.990;2024-01-07T02:46:19;97905.84;;;-1.77;66.26
39491;BME280;25175;50.140;18.990;2024-01-07T02:49:24;97922.38;;;-1.80;66.14
39491;BME280;25175;50.140;18.990;2024-01-07T02:52:29;97921.28;;;-1.77;66.40
39491;BME280;25175;50.140;18.990;2024-01-07T02:55:36;97928.47;;;-1.81;66.27
39491;BME280;25175;50.140;18.990;2024-01-07T02:58:42;97895.19;;;-2.00;66.50
39491;BME280;25175;50.140;18.990;2024-01-07T03:01:46;97904.75;;;-1.92;66.70
39491;BME280;25175;50.140;18.990;2024-01-07T03:04:52;97928.34;;;-1.79;66.81
39491;BME280;25175;50.140;18.990;2024-01-07T03:07:56;97929.94;;;-1.78;66.65
39491;BME280;25175;50.140;18.990;2024-01-07T03:11:07;97920.75;;;-1.81;66.48
39491;BME280;25175;50.140;18.990;2024-01-07T03:14:12;97925.63;;;-1.78;66.59
39491;BME280;25175;50.140;18.990;2024-01-07T03:17:18;97929.94;;;-1.78;66.16
39491;BME280;25175;50.140;18.990;2024-01-07T03:20:23;97933.09;;;-1.84;66.11
39491;BME280;25175;50.140;18.990;2024-01-07T03:23:29;97932.06;;;-1.91;66.30
39491;BME280;25175;50.140;18.990;2024-01-07T03:26:36;97823.75;;;-2.50;66.25
39491;BME280;25175;50.140;18.990;2024-01-07T03:29:41;97920.44;;;-1.95;66.19
39491;BME280;25175;50.140;18.990;2024-01-07T03:32:46;97926.53;;;-1.96;66.50
39491;BME280;25175;50.140;18.990;2024-01-07T03:35:51;97925.19;;;-2.00;66.08
39491;BME280;25175;50.140;18.990;2024-01-07T03:38:56;97935.78;;;-2.03;66.33
39491;BME280;25175;50.140;18.990;2024-01-07T03:42:04;97928.34;;;-2.06;66.00
39491;BME280;25175;50.140;18.990;2024-01-07T03:45:12;97933.47;;;-2.06;66.04
39491;BME280;25175;50.140;18.990;2024-01-07T03:48:18;97940.25;;;-2.05;66.38
39491;BME280;25175;50.140;18.990;2024-01-07T03:51:22;97939.00;;;-2.01;65.96
39491;BME280;25175;50.140;18.990;2024-01-07T03:54:28;97939.16;;;-2.03;65.93
39491;BME280;25175;50.140;18.990;2024-01-07T03:57:35;97936.72;;;-2.04;65.55
39491;BME280;25175;50.140;18.990;2024-01-07T04:00:40;97930.13;;;-2.16;65.48
39491;BME280;25175;50.140;18.990;2024-01-07T04:03:45;97922.44;;;-2.16;65.85
39491;BME280;25175;50.140;18.990;2024-01-07T04:06:51;97944.84;;;-2.09;65.77
39491;BME280;25175;50.140;18.990;2024-01-07T04:09:55;97950.44;;;-2.13;65.20
39491;BME280;25175;50.140;18.990;2024-01-07T04:13:03;97950.31;;;-2.21;65.34
39491;BME280;25175;50.140;18.990;2024-01-07T04:16:15;97921.34;;;-2.50;65.16
39491;BME280;25175;50.140;18.990;2024-01-07T04:19:22;97950.09;;;-2.37;65.50
39491;BME280;25175;50.140;18.990;2024-01-07T04:22:26;97955.53;;;-2.40;65.68
39491;BME280;25175;50.140;18.990;2024-01-07T04:25:32;97955.00;;;-2.44;65.74
39491;BME280;25175;50.140;18.990;2024-01-07T04:28:41;97964.31;;;-2.43;65.58
39491;BME280;25175;50.140;18.990;2024-01-07T04:31:46;97952.03;;;-2.49;65.67
39491;BME280;25175;50.140;18.990;2024-01-07T04:34:53;97963.41;;;-2.51;65.67
39491;BME280;25175;50.140;18.990;2024-01-07T04:38:02;97963.25;;;-2.50;65.83
39491;BME280;25175;50.140;18.990;2024-01-07T04:41:07;97972.19;;;-2.54;65.71
39491;BME280;25175;50.140;18.990;2024-01-07T04:44:15;97968.00;;;-2.55;65.62
39491;BME280;25175;50.140;18.990;2024-01-07T04:47:27;97978.94;;;-2.53;65.75
39491;BME280;25175;50.140;18.990;2024-01-07T04:50:35;97986.50;;;-2.51;65.66
39491;BME280;25175;50.140;18.990;2024-01-07T04:53:40;97985.44;;;-2.49;65.55
39491;BME280;25175;50.140;18.990;2024-01-07T04:56:45;97984.03;;;-2.43;65.39
39491;BME280;25175;50.140;18.990;2024-01-07T04:59:54;97988.53;;;-2.45;65.05
39491;BME280;25175;50.140;18.990;2024-01-07T05:02:59;97985.00;;;-2.44;65.17
39491;BME280;25175;50.140;18.990;2024-01-07T05:06:04;98001.06;;;-2.42;65.40
39491;BME280;25175;50.140;18.990;2024-01-07T05:09:10;97993.22;;;-2.41;65.59
39491;BME280;25175;50.140;18.990;2024-01-07T05:12:14;97990.53;;;-2.39;65.43
39491;BME280;25175;50.140;18.990;2024-01-07T05:15:22;97988.91;;;-2.40;65.57
39491;BME280;25175;50.140;18.990;2024-01-07T05:18:27;97979.47;;;-2.49;65.26
39491;BME280;25175;50.140;18.990;2024-01-07T05:21:32;98000.53;;;-2.46;65.14
39491;BME280;25175;50.140;18.990;2024-01-07T05:24:37;97998.13;;;-2.47;65.26
39491;BME280;25175;50.140;18.990;2024-01-07T05:27:42;98013.53;;;-2.47;65.21
39491;BME280;25175;50.140;18.990;2024-01-07T05:30:49;98003.94;;;-2.45;65.41
39491;BME280;25175;50.140;18.990;2024-01-07T05:33:55;98007.59;;;-2.48;65.19
39491;BME280;25175;50.140;18.990;2024-01-07T05:36:59;98016.63;;;-2.53;65.03
39491;BME280;25175;50.140;18.990;2024-01-07T05:40:06;98018.97;;;-2.60;65.05
39491;BME280;25175;50.140;18.990;2024-01-07T05:43:12;98011.38;;;-2.61;65.06
39491;BME280;25175;50.140;18.990;2024-01-07T05:46:20;98005.84;;;-2.66;65.18
39491;BME280;25175;50.140;18.990;2024-01-07T05:49:24;98012.47;;;-2.64;64.96
39491;BME280;25175;50.140;18.990;2024-01-07T05:52:30;98017.59;;;-2.64;65.23
39491;BME280;25175;50.140;18.990;2024-01-07T05:55:34;98011.00;;;-2.76;64.87
39491;BME280;25175;50.140;18.990;2024-01-07T05:58:39;98030.88;;;-2.68;64.78
39491;BME280;25175;50.140;18.990;2024-01-07T06:01:47;98037.22;;;-2.72;65.09
39491;BME280;25175;50.140;18.990;2024-01-07T06:04:52;98042.22;;;-2.71;65.29
39491;BME280;25175;50.140;18.990;2024-01-07T06:07:56;98038.94;;;-2.73;65.08
39491;BME280;25175;50.140;18.990;2024-01-07T06:11:02;98039.78;;;-2.82;65.03
39491;BME280;25175;50.140;18.990;2024-01-07T06:14:06;98044.22;;;-2.84;65.22
39491;BME280;25175;50.140;18.990;2024-01-07T06:17:14;98034.38;;;-2.88;65.30
39491;BME280;25175;50.140;18.990;2024-01-07T06:20:19;98048.16;;;-2.89;65.53
39491;BME280;25175;50.140;18.990;2024-01-07T06:23:24;98028.41;;;-2.98;65.79
39491;BME280;25175;50.140;18.990;2024-01-07T06:26:29;98055.84;;;-2.89;65.37
39491;BME280;25175;50.140;18.990;2024-01-07T06:29:37;98057.06;;;-2.93;65.19
39491;BME280;25175;50.140;18.990;2024-01-07T06:32:45;98039.75;;;-3.10;65.52
39491;BME280;25175;50.140;18.990;2024-01-07T06:35:51;98070.59;;;-2.91;65.01
39491;BME280;25175;50.140;18.990;2024-01-07T06:38:56;98070.44;;;-2.90;65.03
39491;BME280;25175;50.140;18.990;2024-01-07T06:42:01;98056.22;;;-3.03;64.76
39491;BME280;25175;50.140;18.990;2024-01-07T06:45:06;98074.34;;;-2.95;64.96
39491;BME280;25175;50.140;18.990;2024-01-07T06:48:15;98078.41;;;-2.93;64.80
39491;BME280;25175;50.140;18.990;2024-01-07T06:51:20;98082.84;;;-2.95;64.99
39491;BME280;25175;50.140;18.990;2024-01-07T06:54:25;98068.41;;;-3.05;64.81
39491;BME280;25175;50.140;18.990;2024-01-07T06:57:30;98078.94;;;-2.99;64.62
39491;BME280;25175;50.140;18.990;2024-01-07T07:00:35;98084.34;;;-3.02;64.54
39491;BME280;25175;50.140;18.990;2024-01-07T07:03:42;97701.91;;;-5.37;64.41
39491;BME280;25175;50.140;18.990;2024-01-07T07:06:48;98091.63;;;-3.07;64.87
39491;BME280;25175;50.140;18.990;2024-01-07T07:09:53;98099.19;;;-3.05;64.87
39491;BME280;25175;50.140;18.990;2024-01-07T07:12:58;98104.31;;;-3.05;64.87
39491;BME280;25175;50.140;18.990;2024-01-07T07:16:03;98104.56;;;-3.08;64.95
39491;BME280;25175;50.140;18.990;2024-01-07T07:19:12;98113.38;;;-3.11;64.73
39491;BME280;25175;50.140;18.990;2024-01-07T07:22:18;98103.91;;;-3.10;65.09
39491;BME280;25175;50.140;18.990;2024-01-07T07:25:23;98113.09;;;-3.08;65.18
39491;BME280;25175;50.140;18.990;2024-01-07T07:28:28;98118.09;;;-3.06;64.99
39491;BME280;25175;50.140;18.990;2024-01-07T07:31:33;98114.28;;;-3.12;65.16
39491;BME280;25175;50.140;18.990;2024-01-07T07:34:40;98121.22;;;-3.03;65.49
39491;BME280;25175;50.140;18.990;2024-01-07T07:37:45;98115.81;;;-3.00;65.25
39491;BME280;25175;50.140;18.990;2024-01-07T07:40:50;98112.56;;;-3.02;64.81
39491;BME280;25175;50.140;18.990;2024-01-07T07:43:57;98124.72;;;-2.94;64.54
39491;BME280;25175;50.140;18.990;2024-01-07T07:47:01;98116.91;;;-3.02;64.93
39491;BME280;25175;50.140;18.990;2024-01-07T07:50:10;98132.44;;;-2.94;64.91
39491;BME280;25175;50.140;18.990;2024-01-07T07:53:15;98134.19;;;-2.95;64.79
39491;BME280;25175;50.140;18.990;2024-01-07T07:56:21;98133.50;;;-2.97;64.88
39491;BME280;25175;50.140;18.990;2024-01-07T07:59:26;98134.59;;;-2.99;64.74
39491;BME280;25175;50.140;18.990;2024-01-07T08:02:31;98138.34;;;-3.03;64.60
39491;BME280;25175;50.140;18.990;2024-01-07T08:05:38;98070.63;;;-3.40;64.61
39491;BME280;25175;50.140;18.990;2024-01-07T08:08:45;98061.91;;;-3.58;64.59
39491;BME280;25175;50.140;18.990;2024-01-07T08:11:49;98143.47;;;-3.13;64.90
39491;BME280;25175;50.140;18.990;2024-01-07T08:14:54;98145.34;;;-3.15;64.96
39491;BME280;25175;50.140;18.990;2024-01-07T08:17:59;98143.16;;;-3.19;64.92
39491;BME280;25175;50.140;18.990;2024-01-07T08:21:08;98145.88;;;-3.21;65.01
39491;BME280;25175;50.140;18.990;2024-01-07T08:24:13;98148.56;;;-3.22;64.90
39491;BME280;25175;50.140;18.990;2024-01-07T08:27:18;98149.50;;;-3.23;64.91
39491;BME280;25175;50.140;18.990;2024-01-07T08:30:23;98146.66;;;-3.20;64.73
39491;BME280;25175;50.140;18.990;2024-01-07T08:33:28;98138.81;;;-3.28;64.79
39491;BME280;25175;50.140;18.990;2024-01-07T08:36:36;98163.31;;;-3.15;65.06
39491;BME280;25175;50.140;18.990;2024-01-07T08:39:42;98155.88;;;-3.08;65.08
39491;BME280;25175;50.140;18.990;2024-01-07T08:42:47;98161.97;;;-3.09;63.99
39491;BME280;25175;50.140;18.990;2024-01-07T08:45:52;98153.16;;;-3.16;64.62
39491;BME280;25175;50.140;18.990;2024-01-07T08:48:57;98178.59;;;-3.04;64.57
39491;BME280;25175;50.140;18.990;2024-01-07T08:52:05;98177.91;;;-3.06;64.16
39491;BME280;25175;50.140;18.990;2024-01-07T08:55:10;98176.28;;;-3.07;64.22
39491;BME280;25175;50.140;18.990;2024-01-07T08:58:16;98180.75;;;-3.09;64.51
39491;BME280;25175;50.140;18.990;2024-01-07T09:01:21;98173.69;;;-3.16;64.40
39491;BME280;25175;50.140;18.990;2024-01-07T09:04:26;98184.13;;;-3.08;64.54
39491;BME280;25175;50.140;18.990;2024-01-07T09:07:33;98183.56;;;-3.12;64.37
39491;BME280;25175;50.140;18.990;2024-01-07T09:10:39;98191.81;;;-3.08;64.65
39491;BME280;25175;50.140;18.990;2024-01-07T09:13:44;98200.44;;;-3.09;64.54
39491;BME280;25175;50.140;18.990;2024-01-07T09:16:51;98193.03;;;-3.12;64.66
39491;BME280;25175;50.140;18.990;2024-01-07T09:19:56;98124.69;;;-3.53;64.59
39491;BME280;25175;50.140;18.990;2024-01-07T09:23:05;98196.69;;;-3.05;64.69
39491;BME280;25175;50.140;18.990;2024-01-07T09:26:09;98195.06;;;-3.06;64.41
39491;BME280;25175;50.140;18.990;2024-01-07T09:29:15;98132.69;;;-3.46;64.05
39491;BME280;25175;50.140;18.990;2024-01-07T09:32:19;98193.59;;;-3.09;64.16
39491;BME280;25175;50.140;18.990;2024-01-07T09:35:24;98190.34;;;-3.11;64.47
39491;BME280;25175;50.140;18.990;2024-01-07T09:38:32;98196.94;;;-3.08;64.34
39491;BME280;25175;50.140;18.990;2024-01-07T09:41:37;98188.44;;;-3.09;64.16
39491;BME280;25175;50.140;18.990;2024-01-07T09:44:44;98173.78;;;-3.27;63.72
39491;BME280;25175;50.140;18.990;2024-01-07T09:47:49;98201.50;;;-3.21;64.36
39491;BME280;25175;50.140;18.990;2024-01-07T09:50:55;98172.84;;;-3.26;64.82
39491;BME280;25175;50.140;18.990;2024-01-07T09:54:08;98187.59;;;-3.19;64.52
39491;BME280;25175;50.140;18.990;2024-01-07T09:57:17;98190.72;;;-3.15;64.55
39491;BME280;25175;50.140;18.990;2024-01-07T10:00:23;98190.44;;;-3.22;64.22
39491;BME280;25175;50.140;18.990;2024-01-07T10:03:30;98178.91;;;-3.27;64.15
39491;BME280;25175;50.140;18.990;2024-01-07T10:06:36;98189.84;;;-3.25;64.63
39491;BME280;25175;50.140;18.990;2024-01-07T10:09:44;98199.56;;;-3.29;64.04
39491;BME280;25175;50.140;18.990;2024-01-07T10:12:49;98189.81;;;-3.35;64.08
39491;BME280;25175;50.140;18.990;2024-01-07T10:15:54;98188.88;;;-3.34;64.49
39491;BME280;25175;50.140;18.990;2024-01-07T10:18:59;98179.59;;;-3.25;64.99
39491;BME280;25175;50.140;18.990;2024-01-07T10:22:05;98180.19;;;-3.22;64.81
39491;BME280;25175;50.140;18.990;2024-01-07T10:25:14;98178.59;;;-3.13;64.84
39491;BME280;25175;50.140;18.990;2024-01-07T10:28:19;98183.84;;;-3.15;64.55
39491;BME280;25175;50.140;18.990;2024-01-07T10:31:25;97924.75;;;-4.71;64.31
39491;BME280;25175;50.140;18.990;2024-01-07T10:34:32;98164.78;;;-3.22;64.35
39491;BME280;25175;50.140;18.990;2024-01-07T10:37:38;98187.78;;;-3.11;64.75
39491;BME280;25175;50.140;18.990;2024-01-07T10:40:47;98164.50;;;-3.19;64.01
39491;BME280;25175;50.140;18.990;2024-01-07T10:43:57;98181.41;;;-3.16;63.83
39491;BME280;25175;50.140;18.990;2024-01-07T10:47:06;98181.63;;;-3.19;63.71
39491;BME280;25175;50.140;18.990;2024-01-07T10:50:15;98178.69;;;-3.24;63.72
39491;BME280;25175;50.140;18.990;2024-01-07T10:53:21;97829.19;;;-5.31;63.53
39491;BME280;25175;50.140;18.990;2024-01-07T10:56:39;98188.44;;;-3.09;64.18
39491;BME280;25175;50.140;18.990;2024-01-07T10:59:52;98191.25;;;-3.12;64.10
39491;BME280;25175;50.140;18.990;2024-01-07T11:03:11;98098.47;;;-3.66;63.88
39491;BME280;25175;50.140;18.990;2024-01-07T11:06:31;98186.00;;;-3.10;64.07
39491;BME280;25175;50.140;18.990;2024-01-07T11:09:52;98192.22;;;-3.03;64.24
39491;BME280;25175;50.140;18.990;2024-01-07T11:13:08;98195.63;;;-3.03;63.82
39491;BME280;25175;50.140;18.990;2024-01-07T11:16:43;98198.44;;;-3.06;63.52
39491;BME280;25175;50.140;18.990;2024-01-07T11:19:51;98198.31;;;-3.04;64.25
39491;BME280;25175;50.140;18.990;2024-01-07T11:23:26;98190.25;;;-3.00;64.25
39491;BME280;25175;50.140;18.990;2024-01-07T11:26:34;98197.78;;;-2.98;64.03
39491;BME280;25175;50.140;18.990;2024-01-07T11:29:43;98187.81;;;-3.01;63.73
39491;BME280;25175;50.140;18.990;2024-01-07T11:32:48;98201.81;;;-3.05;63.01
39491;BME280;25175;50.140;18.990;2024-01-07T11:36:02;98204.50;;;-3.07;63.54
39491;BME280;25175;50.140;18.990;2024-01-07T11:39:09;98214.91;;;-3.08;63.02
39491;BME280;25175;50.140;18.990;2024-01-07T11:42:14;98198.16;;;-3.12;63.05
39491;BME280;25175;50.140;18.990;2024-01-07T11:45:21;98194.91;;;-3.14;63.38
39491;BME280;25175;50.140;18.990;2024-01-07T11:48:27;98195.31;;;-3.09;63.93
39491;BME280;25175;50.140;18.990;2024-01-07T11:51:32;98199.00;;;-3.02;63.68
39491;BME280;25175;50.140;18.990;2024-01-07T11:54:40;98139.88;;;-3.40;63.59
39491;BME280;25175;50.140;18.990;2024-01-07T11:57:45;98178.41;;;-3.21;63.18
39491;BME280;25175;50.140;18.990;2024-01-07T12:00:53;98200.72;;;-3.12;63.28
39491;BME280;25175;50.140;18.990;2024-01-07T12:03:57;98208.53;;;-3.14;63.29
39491;BME280;25175;50.140;18.990;2024-01-07T12:07:04;98193.41;;;-3.17;63.40
39491;BME280;25175;50.140;18.990;2024-01-07T12:10:10;98211.22;;;-3.15;63.06
39491;BME280;25175;50.140;18.990;2024-01-07T12:13:17;98197.72;;;-3.17;63.04
39491;BME280;25175;50.140;18.990;2024-01-07T12:16:25;98196.34;;;-3.21;62.60
39491;BME280;25175;50.140;18.990;2024-01-07T12:19:30;98203.66;;;-3.17;62.55
39491;BME280;25175;50.140;18.990;2024-01-07T12:22:37;98203.09;;;-3.20;62.50
39491;BME280;25175;50.140;18.990;2024-01-07T12:25:43;98208.25;;;-3.20;62.72
39491;BME280;25175;50.140;18.990;2024-01-07T12:28:53;98200.94;;;-3.25;62.04
39491;BME280;25175;50.140;18.990;2024-01-07T12:32:01;98203.63;;;-3.26;61.91
39491;BME280;25175;50.140;18.990;2024-01-07T12:35:08;98198.69;;;-3.39;62.03
39491;BME280;25175;50.140;18.990;2024-01-07T12:38:14;98183.78;;;-3.54;62.27
39491;BME280;25175;50.140;18.990;2024-01-07T12:41:19;98215.75;;;-3.38;62.06
39491;BME280;25175;50.140;18.990;2024-01-07T12:44:27;98211.84;;;-3.32;62.35
39491;BME280;25175;50.140;18.990;2024-01-07T12:47:35;98222.38;;;-3.35;61.81
39491;BME280;25175;50.140;18.990;2024-01-07T12:50:40;98235.66;;;-3.41;62.09
39491;BME280;25175;50.140;18.990;2024-01-07T12:53:45;98239.19;;;-3.42;61.93
39491;BME280;25175;50.140;18.990;2024-01-07T12:56:52;98239.69;;;-3.48;61.68
39491;BME280;25175;50.140;18.990;2024-01-07T12:59:57;98234.69;;;-3.50;62.01
39491;BME280;25175;50.140;18.990;2024-01-07T13:03:05;98175.94;;;-3.83;61.87
39491;BME280;25175;50.140;18.990;2024-01-07T13:06:14;98243.38;;;-3.41;62.29
39491;BME280;25175;50.140;18.990;2024-01-07T13:09:20;98153.88;;;-3.95;61.89
39491;BME280;25175;50.140;18.990;2024-01-07T13:12:25;98249.75;;;-3.36;61.74
39491;BME280;25175;50.140;18.990;2024-01-07T13:15:31;98237.25;;;-3.50;61.45
39491;BME280;25175;50.140;18.990;2024-01-07T13:18:38;98265.88;;;-3.45;61.33
39491;BME280;25175;50.140;18.990;2024-01-07T13:21:43;98252.78;;;-3.51;61.99
39491;BME280;25175;50.140;18.990;2024-01-07T13:24:48;98243.31;;;-3.51;61.25
39491;BME280;25175;50.140;18.990;2024-01-07T13:29:56;98248.63;;;-3.63;61.25
39491;BME280;25175;50.140;18.990;2024-01-07T13:33:01;98256.16;;;-3.71;61.11
39491;BME280;25175;50.140;18.990;2024-01-07T13:36:06;98285.28;;;-3.72;61.00
39491;BME280;25175;50.140;18.990;2024-01-07T13:39:14;98277.59;;;-3.72;61.20
39491;BME280;25175;50.140;18.990;2024-01-07T13:42:19;98286.13;;;-3.83;61.06
39491;BME280;25175;50.140;18.990;2024-01-07T13:45:31;98288.13;;;-3.86;61.40
39491;BME280;25175;50.140;18.990;2024-01-07T13:48:35;98281.25;;;-3.86;61.68
39491;BME280;25175;50.140;18.990;2024-01-07T13:51:41;98292.56;;;-3.88;61.63
39491;BME280;25175;50.140;18.990;2024-01-07T13:54:46;98293.25;;;-3.86;61.67
39491;BME280;25175;50.140;18.990;2024-01-07T13:57:54;98290.19;;;-3.80;62.16
39491;BME280;25175;50.140;18.990;2024-01-07T14:01:02;98299.16;;;-3.75;62.23
39491;BME280;25175;50.140;18.990;2024-01-07T14:04:08;98299.94;;;-3.74;62.37
39491;BME280;25175;50.140;18.990;2024-01-07T14:07:14;98303.78;;;-3.69;62.24
39491;BME280;25175;50.140;18.990;2024-01-07T14:10:19;98303.91;;;-3.70;62.04
39491;BME280;25175;50.140;18.990;2024-01-07T14:13:24;98309.06;;;-3.81;61.73
39491;BME280;25175;50.140;18.990;2024-01-07T14:16:32;98323.44;;;-3.90;61.67
39491;BME280;25175;50.140;18.990;2024-01-07T14:19:37;98327.53;;;-3.98;61.27
39491;BME280;25175;50.140;18.990;2024-01-07T14:22:43;98330.69;;;-4.06;61.32
39491;BME280;25175;50.140;18.990;2024-01-07T14:25:48;98311.56;;;-4.33;61.65
39491;BME280;25175;50.140;18.990;2024-01-07T14:28:53;98321.50;;;-4.08;61.37
39491;BME280;25175;50.140;18.990;2024-01-07T14:32:01;98323.38;;;-4.10;61.44
39491;BME280;25175;50.140;18.990;2024-01-07T14:35:07;98278.28;;;-4.33;61.53
39491;BME280;25175;50.140;18.990;2024-01-07T14:38:13;98324.56;;;-4.14;61.26
39491;BME280;25175;50.140;18.990;2024-01-07T14:41:18;98319.22;;;-4.22;61.28
39491;BME280;25175;50.140;18.990;2024-01-07T14:44:22;98325.97;;;-4.21;61.54
39491;BME280;25175;50.140;18.990;2024-01-07T14:47:30;98332.97;;;-4.23;61.29
39491;BME280;25175;50.140;18.990;2024-01-07T14:50:35;98333.66;;;-4.21;61.99
39491;BME280;25175;50.140;18.990;2024-01-07T14:53:42;98335.16;;;-4.19;61.73
39491;BME280;25175;50.140;18.990;2024-01-07T14:56:47;98344.72;;;-4.21;61.28
39491;BME280;25175;50.140;18.990;2024-01-07T14:59:53;98340.78;;;-4.25;61.37
39491;BME280;25175;50.140;18.990;2024-01-07T15:03:00;98350.56;;;-4.30;61.53
39491;BME280;25175;50.140;18.990;2024-01-07T15:06:05;98355.22;;;-4.35;61.50
39491;BME280;25175;50.140;18.990;2024-01-07T15:09:13;98348.69;;;-4.39;61.45
39491;BME280;25175;50.140;18.990;2024-01-07T15:12:18;98354.28;;;-4.45;61.14
39491;BME280;25175;50.140;18.990;2024-01-07T15:15:24;98360.91;;;-4.42;61.78
39491;BME280;25175;50.140;18.990;2024-01-07T15:18:34;98360.13;;;-4.43;61.63
39491;BME280;25175;50.140;18.990;2024-01-07T15:21:39;98374.53;;;-4.42;61.72
39491;BME280;25175;50.140;18.990;2024-01-07T15:24:44;98356.50;;;-4.40;61.64
39491;BME280;25175;50.140;18.990;2024-01-07T15:27:49;98360.56;;;-4.38;61.92
39491;BME280;25175;50.140;18.990;2024-01-07T15:30:56;98364.63;;;-4.35;62.03
39491;BME280;25175;50.140;18.990;2024-01-07T15:34:05;98370.69;;;-4.36;61.96
39491;BME280;25175;50.140;18.990;2024-01-07T15:37:10;98363.47;;;-4.42;62.18
39491;BME280;25175;50.140;18.990;2024-01-07T15:40:15;98357.09;;;-4.58;62.19
39491;BME280;25175;50.140;18.990;2024-01-07T15:43:20;98379.19;;;-4.25;61.63
39491;BME280;25175;50.140;18.990;2024-01-07T15:46:25;98383.97;;;-4.31;61.33
39491;BME280;25175;50.140;18.990;2024-01-07T15:49:33;98396.28;;;-4.36;61.38
39491;BME280;25175;50.140;18.990;2024-01-07T15:52:37;98395.59;;;-4.38;61.52
39491;BME280;25175;50.140;18.990;2024-01-07T15:55:48;98393.41;;;-4.43;61.34
39491;BME280;25175;50.140;18.990;2024-01-07T15:58:52;98398.97;;;-4.49;61.15
39491;BME280;25175;50.140;18.990;2024-01-07T16:01:58;98411.66;;;-4.47;60.98
39491;BME280;25175;50.140;18.990;2024-01-07T16:05:06;98336.72;;;-4.93;60.79
39491;BME280;25175;50.140;18.990;2024-01-07T16:08:11;98397.69;;;-4.65;60.70
39491;BME280;25175;50.140;18.990;2024-01-07T16:11:16;98407.47;;;-4.59;60.81
39491;BME280;25175;50.140;18.990;2024-01-07T16:14:24;98417.34;;;-4.55;60.87
39491;BME280;25175;50.140;18.990;2024-01-07T16:17:31;98428.53;;;-4.56;60.88